sensor_id;sensor_type;location;lat;lon;timestamp;P1;durP1;ratioP1;P2;durP2;ratioP2
14373;SDS011;7270;49.004;12.066;2022-09-16T00:01:28;1.10;;;1.10;;
14373;SDS011;7270;49.004;12.066;2022-09-16T00:03:54;1.20;;;1.20;;
14373;SDS011;7270;49.004;12.066;2022-09-16T00:06:22;1.10;;;1.10;;
14373;SDS011;7270;49.004;12.066;2022-09-16T00:08:49;1.10;;;1.10;;
14373;SDS011;7270;49.004;12.066;2022-09-16T00:11:17;1.00;;;1.00;;
14373;SDS011;7270;49.004;12.066;2022-09-16T00:13:44;1.00;;;1.00;;
14373;SDS011;7270;49.004;12.066;2022-09-16T00:16:11;1.10;;;1.10;;
14373;SDS011;7270;49.004;12.066;2022-09-16T00:18:38;1.07;;;1.07;;
14373;SDS011;7270;49.004;12.066;2022-09-16T00:21:06;1.00;;;1.00;;
14373;SDS011;7270;49.004;12.066;2022-09-16T00:23:32;1.00;;;1.00;;
14373;SDS011;7270;49.004;12.066;2022-09-16T00:25:59;0.90;;;0.90;;
14373;SDS011;7270;49.004;12.066;2022-09-16T00:28:26;1.00;;;1.00;;
14373;SDS011;7270;49.004;12.066;2022-09-16T00:30:53;1.00;;;1.00;;
14373;SDS011;7270;49.004;12.066;2022-09-16T00:33:19;1.10;;;1.10;;
14373;SDS011;7270;49.004;12.066;2022-09-16T00:35:45;1.00;;;1.00;;
14373;SDS011;7270;49.004;12.066;2022-09-16T00:38:12;1.07;;;1.07;;
14373;SDS011;7270;49.004;12.066;2022-09-16T00:40:42;1.03;;;1.03;;
14373;SDS011;7270;49.004;12.066;2022-09-16T00:43:09;1.10;;;1.10;;
14373;SDS011;7270;49.004;12.066;2022-09-16T00:45:38;1.00;;;1.00;;
14373;SDS011;7270;49.004;12.066;2022-09-16T00:48:05;1.10;;;1.10;;
14373;SDS011;7270;49.004;12.066;2022-09-16T00:50:33;1.10;;;1.10;;
14373;SDS011;7270;49.004;12.066;2022-09-16T00:53:02;1.00;;;1.00;;
14373;SDS011;7270;49.004;12.066;2022-09-16T00:55:29;1.10;;;1.10;;
14373;SDS011;7270;49.004;12.066;2022-09-16T00:58:01;1.10;;;1.10;;
14373;SDS011;7270;49.004;12.066;2022-09-16T01:00:29;1.10;;;1.10;;
14373;SDS011;7270;49.004;12.066;2022-09-16T01:02:57;0.90;;;0.90;;
14373;SDS011;7270;49.004;12.066;2022-09-16T01:05:24;1.20;;;1.20;;
14373;SDS011;7270;49.004;12.066;2022-09-16T01:07:51;1.20;;;1.20;;
14373;SDS011;7270;49.004;12.066;2022-09-16T01:10:20;1.10;;;1.10;;
14373;SDS011;7270;49.004;12.066;2022-09-16T01:12:47;1.20;;;1.20;;
14373;SDS011;7270;49.004;12.066;2022-09-16T01:15:14;1.10;;;1.10;;
14373;SDS011;7270;49.004;12.066;2022-09-16T01:23:24;1.10;;;1.10;;
14373;SDS011;7270;49.004;12.066;2022-09-16T01:25:57;1.10;;;1.10;;
14373;SDS011;7270;49.004;12.066;2022-09-16T01:28:39;1.10;;;1.10;;
14373;SDS011;7270;49.004;12.066;2022-09-16T01:31:12;1.10;;;1.10;;
14373;SDS011;7270;49.004;12.066;2022-09-16T01:33:42;1.10;;;1.10;;
14373;SDS011;7270;49.004;12.066;2022-09-16T01:36:16;1.13;;;1.13;;
14373;SDS011;7270;49.004;12.066;2022-09-16T01:38:51;1.10;;;1.10;;
14373;SDS011;7270;49.004;12.066;2022-09-16T01:41:22;0.97;;;0.97;;
14373;SDS011;7270;49.004;12.066;2022-09-16T01:43:53;1.10;;;1.10;;
14373;SDS011;7270;49.004;12.066;2022-09-16T01:46:25;1.07;;;1.07;;
14373;SDS011;7270;49.004;12.066;2022-09-16T01:48:55;1.10;;;1.10;;
14373;SDS011;7270;49.004;12.066;2022-09-16T01:51:26;1.20;;;1.20;;
14373;SDS011;7270;49.004;12.066;2022-09-16T01:53:55;1.10;;;1.10;;
14373;SDS011;7270;49.004;12.066;2022-09-16T01:56:23;1.20;;;1.20;;
14373;SDS011;7270;49.004;12.066;2022-09-16T01:58:52;1.10;;;1.10;;
14373;SDS011;7270;49.004;12.066;2022-09-16T02:01:21;1.27;;;1.20;;
14373;SDS011;7270;49.004;12.066;2022-09-16T02:03:52;1.10;;;1.10;;
14373;SDS011;7270;49.004;12.066;2022-09-16T02:06:19;1.00;;;1.00;;
14373;SDS011;7270;49.004;12.066;2022-09-16T02:08:48;1.20;;;1.20;;
14373;SDS011;7270;49.004;12.066;2022-09-16T02:11:26;1.10;;;1.10;;
14373;SDS011;7270;49.004;12.066;2022-09-16T02:13:54;1.03;;;1.03;;
14373;SDS011;7270;49.004;12.066;2022-09-16T02:16:23;1.30;;;1.20;;
14373;SDS011;7270;49.004;12.066;2022-09-16T02:18:52;1.20;;;1.20;;
14373;SDS011;7270;49.004;12.066;2022-09-16T02:21:20;1.10;;;1.10;;
14373;SDS011;7270;49.004;12.066;2022-09-16T02:23:49;1.00;;;1.00;;
14373;SDS011;7270;49.004;12.066;2022-09-16T02:26:16;1.00;;;1.00;;
14373;SDS011;7270;49.004;12.066;2022-09-16T02:28:45;1.10;;;1.10;;
14373;SDS011;7270;49.004;12.066;2022-09-16T02:31:12;1.10;;;1.10;;
14373;SDS011;7270;49.004;12.066;2022-09-16T02:33:39;1.10;;;1.10;;
14373;SDS011;7270;49.004;12.066;2022-09-16T02:36:10;1.10;;;1.10;;
14373;SDS011;7270;49.004;12.066;2022-09-16T02:38:39;1.20;;;1.20;;
14373;SDS011;7270;49.004;12.066;2022-09-16T02:41:06;1.10;;;1.10;;
14373;SDS011;7270;49.004;12.066;2022-09-16T02:43:38;1.20;;;1.20;;
14373;SDS011;7270;49.004;12.066;2022-09-16T02:46:06;1.17;;;1.17;;
14373;SDS011;7270;49.004;12.066;2022-09-16T02:48:36;1.10;;;1.10;;
14373;SDS011;7270;49.004;12.066;2022-09-16T02:51:08;1.03;;;1.03;;
14373;SDS011;7270;49.004;12.066;2022-09-16T02:53:41;1.10;;;1.10;;
14373;SDS011;7270;49.004;12.066;2022-09-16T02:56:09;1.00;;;1.00;;
14373;SDS011;7270;49.004;12.066;2022-09-16T02:58:38;1.10;;;1.10;;
14373;SDS011;7270;49.004;12.066;2022-09-16T03:01:04;1.20;;;1.20;;
14373;SDS011;7270;49.004;12.066;2022-09-16T03:03:31;1.10;;;1.10;;
14373;SDS011;7270;49.004;12.066;2022-09-16T03:06:17;1.10;;;1.10;;
14373;SDS011;7270;49.004;12.066;2022-09-16T03:08:45;1.10;;;1.10;;
14373;SDS011;7270;49.004;12.066;2022-09-16T03:11:17;1.20;;;1.20;;
14373;SDS011;7270;49.004;12.066;2022-09-16T03:13:46;1.30;;;1.20;;
14373;SDS011;7270;49.004;12.066;2022-09-16T03:16:19;1.10;;;1.10;;
14373;SDS011;7270;49.004;12.066;2022-09-16T03:18:50;1.10;;;1.10;;
14373;SDS011;7270;49.004;12.066;2022-09-16T03:21:23;1.10;;;1.10;;
14373;SDS011;7270;49.004;12.066;2022-09-16T03:23:56;1.20;;;1.20;;
14373;SDS011;7270;49.004;12.066;2022-09-16T03:26:27;1.20;;;1.20;;
14373;SDS011;7270;49.004;12.066;2022-09-16T03:29:01;1.20;;;1.20;;
14373;SDS011;7270;49.004;12.066;2022-09-16T03:31:31;1.17;;;1.17;;
14373;SDS011;7270;49.004;12.066;2022-09-16T03:34:00;1.20;;;1.20;;
14373;SDS011;7270;49.004;12.066;2022-09-16T03:36:30;1.10;;;1.10;;
14373;SDS011;7270;49.004;12.066;2022-09-16T03:38:59;1.20;;;1.20;;
14373;SDS011;7270;49.004;12.066;2022-09-16T03:41:26;1.10;;;1.10;;
14373;SDS011;7270;49.004;12.066;2022-09-16T03:43:53;1.00;;;1.00;;
14373;SDS011;7270;49.004;12.066;2022-09-16T03:46:20;1.10;;;1.10;;
14373;SDS011;7270;49.004;12.066;2022-09-16T03:48:46;1.20;;;1.20;;
14373;SDS011;7270;49.004;12.066;2022-09-16T03:51:13;1.00;;;1.00;;
14373;SDS011;7270;49.004;12.066;2022-09-16T03:53:40;1.00;;;1.00;;
14373;SDS011;7270;49.004;12.066;2022-09-16T03:56:08;1.10;;;1.10;;
14373;SDS011;7270;49.004;12.066;2022-09-16T03:58:34;1.00;;;1.00;;
14373;SDS011;7270;49.004;12.066;2022-09-16T04:01:01;0.90;;;0.90;;
14373;SDS011;7270;49.004;12.066;2022-09-16T04:03:27;1.00;;;1.00;;
14373;SDS011;7270;49.004;12.066;2022-09-16T04:05:55;1.00;;;1.00;;
14373;SDS011;7270;49.004;12.066;2022-09-16T04:08:22;1.10;;;1.10;;
14373;SDS011;7270;49.004;12.066;2022-09-16T04:10:58;1.10;;;1.10;;
14373;SDS011;7270;49.004;12.066;2022-09-16T04:13:27;1.00;;;1.00;;
14373;SDS011;7270;49.004;12.066;2022-09-16T04:15:54;1.10;;;1.10;;
14373;SDS011;7270;49.004;12.066;2022-09-16T04:18:20;1.07;;;1.07;;
14373;SDS011;7270;49.004;12.066;2022-09-16T04:20:46;1.10;;;1.10;;
14373;SDS011;7270;49.004;12.066;2022-09-16T04:23:13;1.00;;;1.00;;
14373;SDS011;7270;49.004;12.066;2022-09-16T04:25:39;1.10;;;1.10;;
14373;SDS011;7270;49.004;12.066;2022-09-16T04:28:06;1.10;;;1.10;;
14373;SDS011;7270;49.004;12.066;2022-09-16T04:30:34;1.20;;;1.20;;
14373;SDS011;7270;49.004;12.066;2022-09-16T04:33:01;1.10;;;1.10;;
14373;SDS011;7270;49.004;12.066;2022-09-16T04:35:27;1.00;;;1.00;;
14373;SDS011;7270;49.004;12.066;2022-09-16T04:37:54;1.00;;;1.00;;
14373;SDS011;7270;49.004;12.066;2022-09-16T04:40:20;1.00;;;1.00;;
14373;SDS011;7270;49.004;12.066;2022-09-16T04:42:47;1.10;;;1.10;;
14373;SDS011;7270;49.004;12.066;2022-09-16T04:45:14;1.00;;;1.00;;
14373;SDS011;7270;49.004;12.066;2022-09-16T04:47:42;1.00;;;1.00;;
14373;SDS011;7270;49.004;12.066;2022-09-16T04:50:08;1.10;;;1.10;;
14373;SDS011;7270;49.004;12.066;2022-09-16T04:52:35;1.03;;;1.03;;
14373;SDS011;7270;49.004;12.066;2022-09-16T04:55:02;1.00;;;1.00;;
14373;SDS011;7270;49.004;12.066;2022-09-16T04:57:29;1.00;;;1.00;;
14373;SDS011;7270;49.004;12.066;2022-09-16T04:59:55;1.00;;;1.00;;
14373;SDS011;7270;49.004;12.066;2022-09-16T05:02:22;1.10;;;1.10;;
14373;SDS011;7270;49.004;12.066;2022-09-16T05:04:50;1.10;;;1.10;;
14373;SDS011;7270;49.004;12.066;2022-09-16T05:07:16;0.90;;;0.90;;
14373;SDS011;7270;49.004;12.066;2022-09-16T05:09:42;1.00;;;1.00;;
14373;SDS011;7270;49.004;12.066;2022-09-16T05:12:08;1.10;;;1.10;;
14373;SDS011;7270;49.004;12.066;2022-09-16T05:14:35;1.10;;;1.10;;
14373;SDS011;7270;49.004;12.066;2022-09-16T05:17:02;1.00;;;1.00;;
14373;SDS011;7270;49.004;12.066;2022-09-16T05:19:28;1.00;;;1.00;;
14373;SDS011;7270;49.004;12.066;2022-09-16T05:21:56;1.00;;;1.00;;
14373;SDS011;7270;49.004;12.066;2022-09-16T05:24:22;1.10;;;1.10;;
14373;SDS011;7270;49.004;12.066;2022-09-16T05:26:49;1.00;;;1.00;;
14373;SDS011;7270;49.004;12.066;2022-09-16T05:29:15;1.00;;;1.00;;
14373;SDS011;7270;49.004;12.066;2022-09-16T05:31:42;0.90;;;0.90;;
14373;SDS011;7270;49.004;12.066;2022-09-16T05:34:11;1.00;;;1.00;;
14373;SDS011;7270;49.004;12.066;2022-09-16T05:36:38;1.00;;;1.00;;
14373;SDS011;7270;49.004;12.066;2022-09-16T05:39:08;1.00;;;1.00;;
14373;SDS011;7270;49.004;12.066;2022-09-16T05:41:37;1.00;;;1.00;;
14373;SDS011;7270;49.004;12.066;2022-09-16T05:44:04;1.00;;;1.00;;
14373;SDS011;7270;49.004;12.066;2022-09-16T05:46:31;1.10;;;1.10;;
14373;SDS011;7270;49.004;12.066;2022-09-16T05:48:58;1.10;;;1.10;;
14373;SDS011;7270;49.004;12.066;2022-09-16T05:51:24;1.20;;;1.20;;
14373;SDS011;7270;49.004;12.066;2022-09-16T05:53:51;1.10;;;1.10;;
14373;SDS011;7270;49.004;12.066;2022-09-16T05:56:20;1.10;;;1.10;;
14373;SDS011;7270;49.004;12.066;2022-09-16T05:58:46;1.10;;;1.10;;
14373;SDS011;7270;49.004;12.066;2022-09-16T06:01:13;1.10;;;1.10;;
14373;SDS011;7270;49.004;12.066;2022-09-16T06:03:40;1.00;;;1.00;;
14373;SDS011;7270;49.004;12.066;2022-09-16T06:06:10;1.10;;;1.10;;
14373;SDS011;7270;49.004;12.066;2022-09-16T06:08:37;1.00;;;1.00;;
14373;SDS011;7270;49.004;12.066;2022-09-16T06:11:05;1.00;;;1.00;;
14373;SDS011;7270;49.004;12.066;2022-09-16T06:13:33;1.00;;;1.00;;
14373;SDS011;7270;49.004;12.066;2022-09-16T06:15:59;1.00;;;1.00;;
14373;SDS011;7270;49.004;12.066;2022-09-16T06:18:27;1.10;;;1.10;;
14373;SDS011;7270;49.004;12.066;2022-09-16T06:20:55;1.00;;;1.00;;
14373;SDS011;7270;49.004;12.066;2022-09-16T06:23:21;1.10;;;1.10;;
14373;SDS011;7270;49.004;12.066;2022-09-16T06:25:48;1.20;;;1.20;;
14373;SDS011;7270;49.004;12.066;2022-09-16T06:28:15;1.00;;;1.00;;
14373;SDS011;7270;49.004;12.066;2022-09-16T06:30:42;1.00;;;1.00;;
14373;SDS011;7270;49.004;12.066;2022-09-16T06:33:09;1.00;;;1.00;;
14373;SDS011;7270;49.004;12.066;2022-09-16T06:35:36;1.10;;;1.10;;
14373;SDS011;7270;49.004;12.066;2022-09-16T06:38:03;1.00;;;1.00;;
14373;SDS011;7270;49.004;12.066;2022-09-16T06:40:29;1.00;;;1.00;;
14373;SDS011;7270;49.004;12.066;2022-09-16T06:42:55;1.10;;;1.10;;
14373;SDS011;7270;49.004;12.066;2022-09-16T06:45:22;1.00;;;1.00;;
14373;SDS011;7270;49.004;12.066;2022-09-16T06:47:50;0.90;;;0.90;;
14373;SDS011;7270;49.004;12.066;2022-09-16T06:50:17;1.00;;;1.00;;
14373;SDS011;7270;49.004;12.066;2022-09-16T06:52:43;1.00;;;1.00;;
14373;SDS011;7270;49.004;12.066;2022-09-16T06:55:10;1.00;;;1.00;;
14373;SDS011;7270;49.004;12.066;2022-09-16T06:57:36;1.03;;;1.03;;
14373;SDS011;7270;49.004;12.066;2022-09-16T07:00:03;1.10;;;1.10;;
14373;SDS011;7270;49.004;12.066;2022-09-16T07:02:29;0.93;;;0.93;;
14373;SDS011;7270;49.004;12.066;2022-09-16T07:04:57;0.90;;;0.90;;
14373;SDS011;7270;49.004;12.066;2022-09-16T07:07:28;0.90;;;0.90;;
14373;SDS011;7270;49.004;12.066;2022-09-16T07:09:54;1.00;;;1.00;;
14373;SDS011;7270;49.004;12.066;2022-09-16T07:12:21;0.97;;;0.97;;
14373;SDS011;7270;49.004;12.066;2022-09-16T07:14:47;0.90;;;0.90;;
14373;SDS011;7270;49.004;12.066;2022-09-16T07:17:13;1.00;;;1.00;;
14373;SDS011;7270;49.004;12.066;2022-09-16T07:19:40;0.93;;;0.93;;
14373;SDS011;7270;49.004;12.066;2022-09-16T07:22:08;1.00;;;1.00;;
14373;SDS011;7270;49.004;12.066;2022-09-16T07:24:35;0.90;;;0.90;;
14373;SDS011;7270;49.004;12.066;2022-09-16T07:27:01;1.00;;;1.00;;
14373;SDS011;7270;49.004;12.066;2022-09-16T07:29:28;0.90;;;0.90;;
14373;SDS011;7270;49.004;12.066;2022-09-16T07:31:54;1.00;;;1.00;;
14373;SDS011;7270;49.004;12.066;2022-09-16T07:34:20;1.00;;;1.00;;
14373;SDS011;7270;49.004;12.066;2022-09-16T07:36:47;1.10;;;1.10;;
14373;SDS011;7270;49.004;12.066;2022-09-16T07:39:16;1.00;;;1.00;;
14373;SDS011;7270;49.004;12.066;2022-09-16T07:41:43;1.10;;;1.10;;
14373;SDS011;7270;49.004;12.066;2022-09-16T07:44:10;1.20;;;1.20;;
14373;SDS011;7270;49.004;12.066;2022-09-16T07:46:37;1.00;;;1.00;;
14373;SDS011;7270;49.004;12.066;2022-09-16T07:49:04;1.10;;;1.10;;
14373;SDS011;7270;49.004;12.066;2022-09-16T07:51:30;1.10;;;1.10;;
14373;SDS011;7270;49.004;12.066;2022-09-16T07:53:57;0.90;;;0.90;;
14373;SDS011;7270;49.004;12.066;2022-09-16T07:56:26;1.00;;;1.00;;
14373;SDS011;7270;49.004;12.066;2022-09-16T07:58:53;1.10;;;1.10;;
14373;SDS011;7270;49.004;12.066;2022-09-16T08:01:19;1.00;;;1.00;;
14373;SDS011;7270;49.004;12.066;2022-09-16T08:03:46;1.00;;;1.00;;
14373;SDS011;7270;49.004;12.066;2022-09-16T08:06:13;0.90;;;0.90;;
14373;SDS011;7270;49.004;12.066;2022-09-16T08:08:40;1.00;;;1.00;;
14373;SDS011;7270;49.004;12.066;2022-09-16T08:11:06;1.10;;;1.10;;
14373;SDS011;7270;49.004;12.066;2022-09-16T08:13:35;1.00;;;1.00;;
14373;SDS011;7270;49.004;12.066;2022-09-16T08:16:04;1.10;;;1.10;;
14373;SDS011;7270;49.004;12.066;2022-09-16T08:18:30;1.10;;;1.10;;
14373;SDS011;7270;49.004;12.066;2022-09-16T08:20:57;1.00;;;1.00;;
14373;SDS011;7270;49.004;12.066;2022-09-16T08:23:25;1.10;;;1.10;;
14373;SDS011;7270;49.004;12.066;2022-09-16T08:25:55;1.00;;;1.00;;
14373;SDS011;7270;49.004;12.066;2022-09-16T08:28:21;1.00;;;1.00;;
14373;SDS011;7270;49.004;12.066;2022-09-16T08:30:49;1.10;;;1.10;;
14373;SDS011;7270;49.004;12.066;2022-09-16T08:33:15;1.00;;;1.00;;
14373;SDS011;7270;49.004;12.066;2022-09-16T08:35:45;1.10;;;1.10;;
14373;SDS011;7270;49.004;12.066;2022-09-16T08:38:11;1.00;;;1.00;;
14373;SDS011;7270;49.004;12.066;2022-09-16T08:40:42;1.10;;;1.10;;
14373;SDS011;7270;49.004;12.066;2022-09-16T08:43:09;1.00;;;1.00;;
14373;SDS011;7270;49.004;12.066;2022-09-16T08:45:41;1.10;;;1.10;;
14373;SDS011;7270;49.004;12.066;2022-09-16T08:48:15;1.10;;;1.10;;
14373;SDS011;7270;49.004;12.066;2022-09-16T08:50:45;1.00;;;1.00;;
14373;SDS011;7270;49.004;12.066;2022-09-16T08:53:13;1.00;;;1.00;;
14373;SDS011;7270;49.004;12.066;2022-09-16T08:55:41;1.00;;;1.00;;
14373;SDS011;7270;49.004;12.066;2022-09-16T08:58:12;1.10;;;1.10;;
14373;SDS011;7270;49.004;12.066;2022-09-16T09:00:39;1.20;;;1.20;;
14373;SDS011;7270;49.004;12.066;2022-09-16T09:03:11;0.90;;;0.90;;
14373;SDS011;7270;49.004;12.066;2022-09-16T09:05:42;0.80;;;0.80;;
14373;SDS011;7270;49.004;12.066;2022-09-16T09:08:14;0.90;;;0.90;;
14373;SDS011;7270;49.004;12.066;2022-09-16T09:10:48;0.90;;;0.90;;
14373;SDS011;7270;49.004;12.066;2022-09-16T09:13:29;0.90;;;0.90;;
14373;SDS011;7270;49.004;12.066;2022-09-16T09:15:57;0.90;;;0.90;;
14373;SDS011;7270;49.004;12.066;2022-09-16T09:18:30;0.90;;;0.90;;
14373;SDS011;7270;49.004;12.066;2022-09-16T09:21:03;0.90;;;0.90;;
14373;SDS011;7270;49.004;12.066;2022-09-16T09:23:36;0.80;;;0.80;;
14373;SDS011;7270;49.004;12.066;2022-09-16T09:26:07;0.90;;;0.90;;
14373;SDS011;7270;49.004;12.066;2022-09-16T09:28:42;0.90;;;0.90;;
14373;SDS011;7270;49.004;12.066;2022-09-16T09:31:12;0.80;;;0.80;;
14373;SDS011;7270;49.004;12.066;2022-09-16T09:33:42;0.80;;;0.80;;
14373;SDS011;7270;49.004;12.066;2022-09-16T09:39:01;0.87;;;0.87;;
14373;SDS011;7270;49.004;12.066;2022-09-16T09:41:32;0.90;;;0.90;;
14373;SDS011;7270;49.004;12.066;2022-09-16T09:46:46;0.90;;;0.90;;
14373;SDS011;7270;49.004;12.066;2022-09-16T09:49:24;0.83;;;0.83;;
14373;SDS011;7270;49.004;12.066;2022-09-16T09:51:52;1.00;;;1.00;;
14373;SDS011;7270;49.004;12.066;2022-09-16T09:54:24;0.87;;;0.87;;
14373;SDS011;7270;49.004;12.066;2022-09-16T09:56:52;0.90;;;0.90;;
14373;SDS011;7270;49.004;12.066;2022-09-16T09:59:22;0.90;;;0.90;;
14373;SDS011;7270;49.004;12.066;2022-09-16T10:01:52;0.90;;;0.90;;
14373;SDS011;7270;49.004;12.066;2022-09-16T10:04:18;0.90;;;0.90;;
14373;SDS011;7270;49.004;12.066;2022-09-16T10:06:44;0.90;;;0.90;;
14373;SDS011;7270;49.004;12.066;2022-09-16T10:09:11;1.00;;;1.00;;
14373;SDS011;7270;49.004;12.066;2022-09-16T10:11:46;0.90;;;0.90;;
14373;SDS011;7270;49.004;12.066;2022-09-16T10:14:20;0.90;;;0.90;;
14373;SDS011;7270;49.004;12.066;2022-09-16T10:16:47;1.10;;;1.10;;
14373;SDS011;7270;49.004;12.066;2022-09-16T10:19:16;1.10;;;1.10;;
14373;SDS011;7270;49.004;12.066;2022-09-16T10:21:44;0.90;;;0.90;;
14373;SDS011;7270;49.004;12.066;2022-09-16T10:24:26;0.80;;;0.80;;
14373;SDS011;7270;49.004;12.066;2022-09-16T10:26:55;0.90;;;0.90;;
14373;SDS011;7270;49.004;12.066;2022-09-16T10:29:21;0.80;;;0.80;;
14373;SDS011;7270;49.004;12.066;2022-09-16T10:31:48;1.00;;;1.00;;
14373;SDS011;7270;49.004;12.066;2022-09-16T10:34:16;0.93;;;0.93;;
14373;SDS011;7270;49.004;12.066;2022-09-16T10:36:44;0.90;;;0.90;;
14373;SDS011;7270;49.004;12.066;2022-09-16T10:39:19;0.90;;;0.90;;
14373;SDS011;7270;49.004;12.066;2022-09-16T10:41:46;0.80;;;0.80;;
14373;SDS011;7270;49.004;12.066;2022-09-16T10:44:14;0.90;;;0.90;;
14373;SDS011;7270;49.004;12.066;2022-09-16T10:46:48;0.90;;;0.90;;
14373;SDS011;7270;49.004;12.066;2022-09-16T10:49:15;0.80;;;0.80;;
14373;SDS011;7270;49.004;12.066;2022-09-16T10:51:43;0.90;;;0.90;;
14373;SDS011;7270;49.004;12.066;2022-09-16T10:54:20;1.00;;;1.00;;
14373;SDS011;7270;49.004;12.066;2022-09-16T10:56:48;0.90;;;0.90;;
14373;SDS011;7270;49.004;12.066;2022-09-16T10:59:16;0.90;;;0.90;;
14373;SDS011;7270;49.004;12.066;2022-09-16T11:01:43;0.90;;;0.90;;
14373;SDS011;7270;49.004;12.066;2022-09-16T11:04:15;1.00;;;1.00;;
14373;SDS011;7270;49.004;12.066;2022-09-16T11:06:49;1.00;;;1.00;;
14373;SDS011;7270;49.004;12.066;2022-09-16T11:09:17;1.00;;;1.00;;
14373;SDS011;7270;49.004;12.066;2022-09-16T11:11:53;0.90;;;0.90;;
14373;SDS011;7270;49.004;12.066;2022-09-16T11:14:27;0.90;;;0.90;;
14373;SDS011;7270;49.004;12.066;2022-09-16T11:17:02;0.90;;;0.90;;
14373;SDS011;7270;49.004;12.066;2022-09-16T11:19:31;1.00;;;1.00;;
14373;SDS011;7270;49.004;12.066;2022-09-16T11:22:07;0.90;;;0.90;;
14373;SDS011;7270;49.004;12.066;2022-09-16T11:24:46;0.80;;;0.80;;
14373;SDS011;7270;49.004;12.066;2022-09-16T11:27:18;1.00;;;1.00;;
14373;SDS011;7270;49.004;12.066;2022-09-16T11:29:53;0.80;;;0.80;;
14373;SDS011;7270;49.004;12.066;2022-09-16T11:32:25;0.90;;;0.90;;
14373;SDS011;7270;49.004;12.066;2022-09-16T11:34:57;0.80;;;0.80;;
14373;SDS011;7270;49.004;12.066;2022-09-16T11:37:28;0.90;;;0.90;;
14373;SDS011;7270;49.004;12.066;2022-09-16T11:40:03;0.90;;;0.90;;
14373;SDS011;7270;49.004;12.066;2022-09-16T11:42:33;0.90;;;0.90;;
14373;SDS011;7270;49.004;12.066;2022-09-16T11:45:02;0.90;;;0.90;;
14373;SDS011;7270;49.004;12.066;2022-09-16T11:47:36;0.90;;;0.90;;
14373;SDS011;7270;49.004;12.066;2022-09-16T11:50:13;0.90;;;0.90;;
14373;SDS011;7270;49.004;12.066;2022-09-16T11:52:47;1.00;;;1.00;;
14373;SDS011;7270;49.004;12.066;2022-09-16T11:55:18;1.00;;;1.00;;
14373;SDS011;7270;49.004;12.066;2022-09-16T11:57:47;1.00;;;1.00;;
14373;SDS011;7270;49.004;12.066;2022-09-16T12:00:17;0.90;;;0.90;;
14373;SDS011;7270;49.004;12.066;2022-09-16T12:02:45;0.90;;;0.90;;
14373;SDS011;7270;49.004;12.066;2022-09-16T12:05:14;1.20;;;1.20;;
14373;SDS011;7270;49.004;12.066;2022-09-16T12:07:44;1.20;;;1.20;;
14373;SDS011;7270;49.004;12.066;2022-09-16T12:10:15;1.40;;;1.30;;
14373;SDS011;7270;49.004;12.066;2022-09-16T12:12:43;1.20;;;1.20;;
14373;SDS011;7270;49.004;12.066;2022-09-16T12:15:14;1.20;;;1.20;;
14373;SDS011;7270;49.004;12.066;2022-09-16T12:17:45;1.27;;;1.20;;
14373;SDS011;7270;49.004;12.066;2022-09-16T12:20:13;1.40;;;1.30;;
14373;SDS011;7270;49.004;12.066;2022-09-16T12:22:42;1.20;;;1.20;;
14373;SDS011;7270;49.004;12.066;2022-09-16T12:25:11;1.23;;;1.20;;
14373;SDS011;7270;49.004;12.066;2022-09-16T12:27:49;1.20;;;1.20;;
14373;SDS011;7270;49.004;12.066;2022-09-16T12:30:17;1.20;;;1.20;;
14373;SDS011;7270;49.004;12.066;2022-09-16T12:32:47;1.30;;;1.20;;
14373;SDS011;7270;49.004;12.066;2022-09-16T12:35:16;1.37;;;1.27;;
14373;SDS011;7270;49.004;12.066;2022-09-16T12:37:45;1.10;;;1.10;;
14373;SDS011;7270;49.004;12.066;2022-09-16T12:40:13;1.10;;;1.10;;
14373;SDS011;7270;49.004;12.066;2022-09-16T12:48:30;1.10;;;1.10;;
14373;SDS011;7270;49.004;12.066;2022-09-16T12:51:07;1.20;;;1.20;;
14373;SDS011;7270;49.004;12.066;2022-09-16T12:53:46;1.10;;;1.10;;
14373;SDS011;7270;49.004;12.066;2022-09-16T12:56:19;1.20;;;1.20;;
14373;SDS011;7270;49.004;12.066;2022-09-16T13:01:34;1.00;;;1.00;;
14373;SDS011;7270;49.004;12.066;2022-09-16T13:04:03;1.10;;;1.10;;
14373;SDS011;7270;49.004;12.066;2022-09-16T13:06:34;0.90;;;0.90;;
14373;SDS011;7270;49.004;12.066;2022-09-16T13:09:11;1.00;;;1.00;;
14373;SDS011;7270;49.004;12.066;2022-09-16T13:11:39;1.00;;;1.00;;
14373;SDS011;7270;49.004;12.066;2022-09-16T13:14:13;1.10;;;1.10;;
14373;SDS011;7270;49.004;12.066;2022-09-16T13:16:50;1.00;;;1.00;;
14373;SDS011;7270;49.004;12.066;2022-09-16T13:19:30;1.10;;;1.10;;
14373;SDS011;7270;49.004;12.066;2022-09-16T13:21:59;1.10;;;1.10;;
14373;SDS011;7270;49.004;12.066;2022-09-16T13:24:30;1.10;;;1.10;;
14373;SDS011;7270;49.004;12.066;2022-09-16T13:27:00;1.20;;;1.20;;
14373;SDS011;7270;49.004;12.066;2022-09-16T13:29:28;1.10;;;1.10;;
14373;SDS011;7270;49.004;12.066;2022-09-16T13:31:55;1.03;;;1.03;;
14373;SDS011;7270;49.004;12.066;2022-09-16T13:34:22;1.10;;;1.10;;
14373;SDS011;7270;49.004;12.066;2022-09-16T13:36:50;1.10;;;1.10;;
14373;SDS011;7270;49.004;12.066;2022-09-16T13:39:26;1.10;;;1.10;;
14373;SDS011;7270;49.004;12.066;2022-09-16T13:41:52;1.20;;;1.20;;
14373;SDS011;7270;49.004;12.066;2022-09-16T13:44:26;1.10;;;1.10;;
14373;SDS011;7270;49.004;12.066;2022-09-16T13:47:05;1.10;;;1.10;;
14373;SDS011;7270;49.004;12.066;2022-09-16T13:49:31;1.27;;;1.20;;
14373;SDS011;7270;49.004;12.066;2022-09-16T13:52:07;1.10;;;1.10;;
14373;SDS011;7270;49.004;12.066;2022-09-16T13:54:39;1.10;;;1.10;;
14373;SDS011;7270;49.004;12.066;2022-09-16T13:57:25;1.10;;;1.10;;
14373;SDS011;7270;49.004;12.066;2022-09-16T14:00:00;1.20;;;1.20;;
14373;SDS011;7270;49.004;12.066;2022-09-16T14:02:31;1.00;;;1.00;;
14373;SDS011;7270;49.004;12.066;2022-09-16T14:05:16;1.00;;;1.00;;
14373;SDS011;7270;49.004;12.066;2022-09-16T14:07:47;1.10;;;1.10;;
14373;SDS011;7270;49.004;12.066;2022-09-16T14:10:17;1.00;;;1.00;;
14373;SDS011;7270;49.004;12.066;2022-09-16T14:12:47;1.10;;;1.10;;
14373;SDS011;7270;49.004;12.066;2022-09-16T14:15:16;1.10;;;1.10;;
14373;SDS011;7270;49.004;12.066;2022-09-16T14:17:45;1.10;;;1.10;;
14373;SDS011;7270;49.004;12.066;2022-09-16T14:20:12;1.20;;;1.20;;
14373;SDS011;7270;49.004;12.066;2022-09-16T14:22:42;1.20;;;1.20;;
14373;SDS011;7270;49.004;12.066;2022-09-16T14:25:30;1.10;;;1.10;;
14373;SDS011;7270;49.004;12.066;2022-09-16T14:28:07;1.20;;;1.20;;
14373;SDS011;7270;49.004;12.066;2022-09-16T14:30:33;1.20;;;1.20;;
14373;SDS011;7270;49.004;12.066;2022-09-16T14:33:00;1.10;;;1.10;;
14373;SDS011;7270;49.004;12.066;2022-09-16T14:35:27;1.10;;;1.10;;
14373;SDS011;7270;49.004;12.066;2022-09-16T14:37:55;1.03;;;1.03;;
14373;SDS011;7270;49.004;12.066;2022-09-16T14:40:22;1.10;;;1.10;;
14373;SDS011;7270;49.004;12.066;2022-09-16T14:42:52;1.00;;;1.00;;
14373;SDS011;7270;49.004;12.066;2022-09-16T14:45:19;1.00;;;1.00;;
14373;SDS011;7270;49.004;12.066;2022-09-16T14:47:45;1.10;;;1.10;;
14373;SDS011;7270;49.004;12.066;2022-09-16T14:50:13;1.13;;;1.13;;
14373;SDS011;7270;49.004;12.066;2022-09-16T14:52:45;1.10;;;1.10;;
14373;SDS011;7270;49.004;12.066;2022-09-16T14:55:18;0.87;;;0.87;;
14373;SDS011;7270;49.004;12.066;2022-09-16T14:57:44;1.00;;;1.00;;
14373;SDS011;7270;49.004;12.066;2022-09-16T15:00:13;0.90;;;0.90;;
14373;SDS011;7270;49.004;12.066;2022-09-16T15:02:41;0.90;;;0.90;;
14373;SDS011;7270;49.004;12.066;2022-09-16T15:05:18;0.87;;;0.87;;
14373;SDS011;7270;49.004;12.066;2022-09-16T15:07:46;0.80;;;0.80;;
14373;SDS011;7270;49.004;12.066;2022-09-16T15:10:17;0.90;;;0.90;;
14373;SDS011;7270;49.004;12.066;2022-09-16T15:12:47;0.80;;;0.80;;
14373;SDS011;7270;49.004;12.066;2022-09-16T15:15:16;0.90;;;0.90;;
14373;SDS011;7270;49.004;12.066;2022-09-16T15:17:44;0.90;;;0.90;;
14373;SDS011;7270;49.004;12.066;2022-09-16T15:20:17;0.80;;;0.80;;